sensor_id;sensor_type;location;lat;lon;timestamp;noise_LAeq;noise_LA_min;noise_LA_max;noise_LA01;noise_LA95
67318;Laerm;57664;51.436;5.980;2023-02-15T00:00:05;41.39;40.57;42.17;;
67318;Laerm;57664;51.436;5.980;2023-02-15T00:00:16;41.35;40.32;42.19;;
67318;Laerm;57664;51.436;5.980;2023-02-15T00:00:27;41.36;40.42;42.34;;
67318;Laerm;57664;51.436;5.980;2023-02-15T00:00:37;41.35;40.25;42.36;;
67318;Laerm;57664;51.436;5.980;2023-02-15T00:00:47;41.38;40.39;42.36;;
67318;Laerm;57664;51.436;5.980;2023-02-15T00:01:07;41.38;40.41;42.83;;
67318;Laerm;57664;51.436;5.980;2023-02-15T00:01:18;41.38;40.45;42.23;;
67318;Laerm;57664;51.436;5.980;2023-02-15T00:01:28;41.35;40.51;42.40;;
67318;Laerm;57664;51.436;5.980;2023-02-15T00:01:39;41.36;40.41;42.32;;
67318;Laerm;57664;51.436;5.980;2023-02-15T00:01:49;41.36;40.59;42.28;;
67318;Laerm;57664;51.436;5.980;2023-02-15T00:02:00;41.35;40.42;42.28;;
67318;Laerm;57664;51.436;5.980;2023-02-15T00:02:11;41.33;40.58;42.15;;
67318;Laerm;57664;51.436;5.980;2023-02-15T00:02:21;41.36;40.30;42.17;;
67318;Laerm;57664;51.436;5.980;2023-02-15T00:02:31;41.31;40.51;41.92;;
67318;Laerm;57664;51.436;5.980;2023-02-15T00:02:41;41.30;40.36;42.19;;
67318;Laerm;57664;51.436;5.980;2023-02-15T00:02:52;41.33;40.46;42.21;;
67318;Laerm;57664;51.436;5.980;2023-02-15T00:03:02;41.37;40.41;42.69;;
67318;Laerm;57664;51.436;5.980;2023-02-15T00:03:12;41.37;40.30;43.34;;
67318;Laerm;57664;51.436;5.980;2023-02-15T00:03:25;41.35;40.40;43.01;;
67318;Laerm;57664;51.436;5.980;2023-02-15T00:03:35;41.32;40.22;42.11;;
67318;Laerm;57664;51.436;5.980;2023-02-15T00:03:47;41.33;40.30;42.16;;
67318;Laerm;57664;51.436;5.980;2023-02-15T00:03:58;41.35;40.43;42.28;;
67318;Laerm;57664;51.436;5.980;2023-02-15T00:04:09;41.36;40.58;42.26;;
67318;Laerm;57664;51.436;5.980;2023-02-15T00:04:20;41.36;40.49;42.14;;
67318;Laerm;57664;51.436;5.980;2023-02-15T00:04:31;41.36;40.46;42.26;;
67318;Laerm;57664;51.436;5.980;2023-02-15T00:04:56;41.33;40.18;42.22;;
67318;Laerm;57664;51.436;5.980;2023-02-15T00:05:07;41.32;40.37;42.18;;
67318;Laerm;57664;51.436;5.980;2023-02-15T00:05:17;41.36;40.26;42.25;;
67318;Laerm;57664;51.436;5.980;2023-02-15T00:05:27;41.35;40.52;42.69;;
67318;Laerm;57664;51.436;5.980;2023-02-15T00:05:40;41.36;40.37;42.37;;
67318;Laerm;57664;51.436;5.980;2023-02-15T00:05:50;41.31;40.50;42.29;;
67318;Laerm;57664;51.436;5.980;2023-02-15T00:06:01;41.37;40.43;42.22;;
67318;Laerm;57664;51.436;5.980;2023-02-15T00:06:11;41.37;40.56;42.19;;
67318;Laerm;57664;51.436;5.980;2023-02-15T00:06:22;41.33;40.45;42.20;;
67318;Laerm;57664;51.436;5.980;2023-02-15T00:06:32;41.34;40.28;42.32;;
67318;Laerm;57664;51.436;5.980;2023-02-15T00:06:43;41.36;40.40;42.29;;
67318;Laerm;57664;51.436;5.980;2023-02-15T00:06:53;41.34;40.13;42.26;;
67318;Laerm;57664;51.436;5.980;2023-02-15T00:07:03;41.32;40.32;42.36;;
67318;Laerm;57664;51.436;5.980;2023-02-15T00:07:14;41.31;40.42;42.04;;
67318;Laerm;57664;51.436;5.980;2023-02-15T00:07:25;41.35;40.49;43.01;;
67318;Laerm;57664;51.436;5.980;2023-02-15T00:07:36;41.34;40.43;42.27;;
67318;Laerm;57664;51.436;5.980;2023-02-15T00:07:46;41.35;40.55;42.17;;
67318;Laerm;57664;51.436;5.980;2023-02-15T00:07:56;41.35;40.31;42.25;;
67318;Laerm;57664;51.436;5.980;2023-02-15T00:08:06;41.30;40.09;43.02;;
67318;Laerm;57664;51.436;5.980;2023-02-15T00:08:17;41.32;40.45;42.67;;
67318;Laerm;57664;51.436;5.980;2023-02-15T00:08:27;41.29;40.06;42.20;;
67318;Laerm;57664;51.436;5.980;2023-02-15T00:08:37;41.33;40.59;42.21;;
67318;Laerm;57664;51.436;5.980;2023-02-15T00:08:48;41.30;40.38;42.16;;
67318;Laerm;57664;51.436;5.980;2023-02-15T00:08:59;41.33;40.37;42.08;;
67318;Laerm;57664;51.436;5.980;2023-02-15T00:09:09;41.32;40.54;42.20;;
67318;Laerm;57664;51.436;5.980;2023-02-15T00:09:20;41.30;40.51;42.22;;
67318;Laerm;57664;51.436;5.980;2023-02-15T00:09:30;41.31;40.32;42.34;;
67318;Laerm;57664;51.436;5.980;2023-02-15T00:09:40;41.31;40.51;42.21;;
67318;Laerm;57664;51.436;5.980;2023-02-15T00:09:51;41.34;40.40;42.36;;
67318;Laerm;57664;51.436;5.980;2023-02-15T00:10:02;41.33;40.52;42.21;;
67318;Laerm;57664;51.436;5.980;2023-02-15T00:10:12;41.34;40.54;42.14;;
67318;Laerm;57664;51.436;5.980;2023-02-15T00:10:24;41.32;40.56;42.35;;
67318;Laerm;57664;51.436;5.980;2023-02-15T00:10:34;41.35;40.33;42.03;;
67318;Laerm;57664;51.436;5.980;2023-02-15T00:10:44;41.33;40.34;42.37;;
67318;Laerm;57664;51.436;5.980;2023-02-15T00:11:04;41.35;40.55;42.36;;
67318;Laerm;57664;51.436;5.980;2023-02-15T00:11:16;41.34;40.32;42.36;;
67318;Laerm;57664;51.436;5.980;2023-02-15T00:11:50;41.35;40.21;42.31;;
67318;Laerm;57664;51.436;5.980;2023-02-15T00:12:00;41.32;40.35;42.07;;
67318;Laerm;57664;51.436;5.980;2023-02-15T00:12:10;41.34;40.36;42.21;;
67318;Laerm;57664;51.436;5.980;2023-02-15T00:12:21;41.39;40.57;42.20;;
67318;Laerm;57664;51.436;5.980;2023-02-15T00:12:31;41.34;40.54;42.07;;
67318;Laerm;57664;51.436;5.980;2023-02-15T00:12:41;41.37;40.33;42.21;;
67318;Laerm;57664;51.436;5.980;2023-02-15T00:12:52;41.40;40.52;42.79;;
67318;Laerm;57664;51.436;5.980;2023-02-15T00:13:02;41.38;40.43;42.21;;
67318;Laerm;57664;51.436;5.980;2023-02-15T00:13:12;41.39;40.54;42.34;;
67318;Laerm;57664;51.436;5.980;2023-02-15T00:13:22;41.40;40.64;42.40;;
67318;Laerm;57664;51.436;5.980;2023-02-15T00:13:33;41.38;40.54;42.20;;
67318;Laerm;57664;51.436;5.980;2023-02-15T00:13:45;41.40;40.48;42.27;;
67318;Laerm;57664;51.436;5.980;2023-02-15T00:13:55;41.38;40.35;42.06;;
67318;Laerm;57664;51.436;5.980;2023-02-15T00:14:14;41.39;40.45;42.25;;
67318;Laerm;57664;51.436;5.980;2023-02-15T00:14:25;41.39;40.39;42.21;;
67318;Laerm;57664;51.436;5.980;2023-02-15T00:14:35;41.37;40.38;42.22;;
67318;Laerm;57664;51.436;5.980;2023-02-15T00:14:47;41.36;40.37;42.78;;
67318;Laerm;57664;51.436;5.980;2023-02-15T00:14:57;41.38;40.47;42.09;;
67318;Laerm;57664;51.436;5.980;2023-02-15T00:15:08;41.37;40.25;42.23;;
67318;Laerm;57664;51.436;5.980;2023-02-15T00:15:18;41.37;40.61;42.34;;
67318;Laerm;57664;51.436;5.980;2023-02-15T00:15:28;41.35;40.51;42.65;;
67318;Laerm;57664;51.436;5.980;2023-02-15T00:15:39;41.39;40.48;42.21;;
67318;Laerm;57664;51.436;5.980;2023-02-15T00:15:49;41.39;40.49;42.18;;
67318;Laerm;57664;51.436;5.980;2023-02-15T00:16:01;41.35;40.48;42.35;;
67318;Laerm;57664;51.436;5.980;2023-02-15T00:16:12;41.38;40.30;42.23;;
67318;Laerm;57664;51.436;5.980;2023-02-15T00:16:22;41.33;40.37;42.40;;
67318;Laerm;57664;51.436;5.980;2023-02-15T00:16:33;41.34;40.17;42.41;;
67318;Laerm;57664;51.436;5.980;2023-02-15T00:16:43;41.35;40.42;42.18;;
67318;Laerm;57664;51.436;5.980;2023-02-15T00:16:54;41.37;40.30;42.23;;
67318;Laerm;57664;51.436;5.980;2023-02-15T00:17:05;41.34;40.55;42.20;;
67318;Laerm;57664;51.436;5.980;2023-02-15T00:17:15;41.31;40.30;42.17;;
67318;Laerm;57664;51.436;5.980;2023-02-15T00:17:28;41.35;40.37;42.13;;
67318;Laerm;57664;51.436;5.980;2023-02-15T00:17:39;41.35;40.43;42.29;;
67318;Laerm;57664;51.436;5.980;2023-02-15T00:17:49;41.32;40.34;42.31;;
67318;Laerm;57664;51.436;5.980;2023-02-15T00:17:59;41.33;40.34;42.26;;
67318;Laerm;57664;51.436;5.980;2023-02-15T00:18:09;41.34;40.32;42.17;;
67318;Laerm;57664;51.436;5.980;2023-02-15T00:18:20;41.33;40.30;42.33;;
67318;Laerm;57664;51.436;5.980;2023-02-15T00:18:30;41.33;40.27;42.14;;
67318;Laerm;57664;51.436;5.980;2023-02-15T00:18:40;41.30;40.35;42.38;;
67318;Laerm;57664;51.436;5.980;2023-02-15T00:18:51;41.32;40.54;42.00;;
67318;Laerm;57664;51.436;5.980;2023-02-15T00:19:01;41.32;40.51;42.20;;
67318;Laerm;57664;51.436;5.980;2023-02-15T00:19:12;41.31;40.31;42.72;;
67318;Laerm;57664;51.436;5.980;2023-02-15T00:19:24;41.35;40.55;43.04;;
67318;Laerm;57664;51.436;5.980;2023-02-15T00:19:34;41.33;40.45;42.37;;
67318;Laerm;57664;51.436;5.980;2023-02-15T00:19:54;41.33;40.34;42.08;;
67318;Laerm;57664;51.436;5.980;2023-02-15T00:20:05;41.35;40.52;42.26;;
67318;Laerm;57664;51.436;5.980;2023-02-15T00:20:15;41.37;40.49;42.30;;
67318;Laerm;57664;51.436;5.980;2023-02-15T00:20:26;41.34;40.60;42.49;;
67318;Laerm;57664;51.436;5.980;2023-02-15T00:20:36;41.32;40.47;42.37;;
67318;Laerm;57664;51.436;5.980;2023-02-15T00:20:47;41.38;40.54;42.36;;
67318;Laerm;57664;51.436;5.980;2023-02-15T00:21:02;41.32;40.56;42.18;;
67318;Laerm;57664;51.436;5.980;2023-02-15T00:21:15;41.37;40.13;42.33;;
67318;Laerm;57664;51.436;5.980;2023-02-15T00:21:26;41.37;39.93;42.37;;
67318;Laerm;57664;51.436;5.980;2023-02-15T00:21:36;41.37;39.91;42.40;;
67318;Laerm;57664;51.436;5.980;2023-02-15T00:21:47;41.35;40.47;42.19;;
67318;Laerm;57664;51.436;5.980;2023-02-15T00:21:58;41.37;40.17;42.35;;
67318;Laerm;57664;51.436;5.980;2023-02-15T00:22:08;41.37;40.56;42.25;;
67318;Laerm;57664;51.436;5.980;2023-02-15T00:22:18;41.39;40.47;42.25;;
67318;Laerm;57664;51.436;5.980;2023-02-15T00:22:29;41.36;40.46;42.31;;
67318;Laerm;57664;51.436;5.980;2023-02-15T00:22:40;41.37;40.44;42.21;;
67318;Laerm;57664;51.436;5.980;2023-02-15T00:22:50;41.37;40.42;42.35;;
67318;Laerm;57664;51.436;5.980;2023-02-15T00:23:00;41.36;40.03;42.14;;
67318;Laerm;57664;51.436;5.980;2023-02-15T00:23:11;41.36;40.29;42.10;;
67318;Laerm;57664;51.436;5.980;2023-02-15T00:23:21;41.34;40.42;42.16;;
67318;Laerm;57664;51.436;5.980;2023-02-15T00:23:31;41.34;40.28;42.31;;
67318;Laerm;57664;51.436;5.980;2023-02-15T00:23:41;41.38;40.28;42.22;;
67318;Laerm;57664;51.436;5.980;2023-02-15T00:23:52;41.34;40.53;42.32;;
67318;Laerm;57664;51.436;5.980;2023-02-15T00:24:03;41.38;40.44;42.24;;
67318;Laerm;57664;51.436;5.980;2023-02-15T00:24:14;41.40;40.51;42.42;;
67318;Laerm;57664;51.436;5.980;2023-02-15T00:24:25;41.37;40.60;42.14;;
67318;Laerm;57664;51.436;5.980;2023-02-15T00:24:35;41.32;40.43;42.15;;
67318;Laerm;57664;51.436;5.980;2023-02-15T00:24:45;41.37;40.30;42.59;;
67318;Laerm;57664;51.436;5.980;2023-02-15T00:24:56;41.39;40.36;42.25;;
67318;Laerm;57664;51.436;5.980;2023-02-15T00:25:06;41.37;40.61;42.25;;
67318;Laerm;57664;51.436;5.980;2023-02-15T00:25:16;41.36;40.65;42.25;;
67318;Laerm;57664;51.436;5.980;2023-02-15T00:25:26;41.37;40.19;42.25;;
67318;Laerm;57664;51.436;5.980;2023-02-15T00:25:39;41.37;40.39;42.23;;
67318;Laerm;57664;51.436;5.980;2023-02-15T00:25:49;41.39;40.20;42.16;;
67318;Laerm;57664;51.436;5.980;2023-02-15T00:26:06;41.37;40.29;42.09;;
67318;Laerm;57664;51.436;5.980;2023-02-15T00:26:17;41.38;40.40;42.22;;
67318;Laerm;57664;51.436;5.980;2023-02-15T00:26:28;41.38;39.98;42.18;;
67318;Laerm;57664;51.436;5.980;2023-02-15T00:26:39;41.38;40.47;42.24;;
67318;Laerm;57664;51.436;5.980;2023-02-15T00:26:51;41.36;40.35;42.20;;
67318;Laerm;57664;51.436;5.980;2023-02-15T00:27:01;41.34;40.44;42.25;;
67318;Laerm;57664;51.436;5.980;2023-02-15T00:27:11;41.36;40.52;42.46;;
67318;Laerm;57664;51.436;5.980;2023-02-15T00:27:22;41.34;40.47;42.16;;
67318;Laerm;57664;51.436;5.980;2023-02-15T00:27:32;41.31;40.36;42.22;;
67318;Laerm;57664;51.436;5.980;2023-02-15T00:27:44;41.31;40.14;42.10;;
67318;Laerm;57664;51.436;5.980;2023-02-15T00:27:54;41.29;40.37;42.15;;
67318;Laerm;57664;51.436;5.980;2023-02-15T00:28:05;41.30;40.38;42.41;;
67318;Laerm;57664;51.436;5.980;2023-02-15T00:28:15;41.31;40.42;42.82;;
67318;Laerm;57664;51.436;5.980;2023-02-15T00:28:25;41.27;40.21;42.31;;
67318;Laerm;57664;51.436;5.980;2023-02-15T00:28:36;41.27;40.35;42.03;;
67318;Laerm;57664;51.436;5.980;2023-02-15T00:28:46;41.31;40.51;42.15;;
67318;Laerm;57664;51.436;5.980;2023-02-15T00:28:59;41.31;40.45;42.24;;
67318;Laerm;57664;51.436;5.980;2023-02-15T00:29:10;41.27;40.27;42.14;;
67318;Laerm;57664;51.436;5.980;2023-02-15T00:29:21;41.28;40.17;42.20;;
67318;Laerm;57664;51.436;5.980;2023-02-15T00:29:31;41.25;40.39;42.09;;
67318;Laerm;57664;51.436;5.980;2023-02-15T00:29:42;41.29;40.40;42.24;;
67318;Laerm;57664;51.436;5.980;2023-02-15T00:29:52;41.27;40.45;42.18;;
67318;Laerm;57664;51.436;5.980;2023-02-15T00:30:02;41.28;40.36;42.06;;
67318;Laerm;57664;51.436;5.980;2023-02-15T00:30:12;41.29;40.35;42.05;;
67318;Laerm;57664;51.436;5.980;2023-02-15T00:30:23;41.26;40.31;42.06;;
67318;Laerm;57664;51.436;5.980;2023-02-15T00:30:33;41.28;40.47;42.66;;
67318;Laerm;57664;51.436;5.980;2023-02-15T00:30:43;41.28;40.09;42.17;;
67318;Laerm;57664;51.436;5.980;2023-02-15T00:30:54;41.27;40.43;42.12;;
67318;Laerm;57664;51.436;5.980;2023-02-15T00:31:08;41.26;40.46;42.17;;
67318;Laerm;57664;51.436;5.980;2023-02-15T00:31:19;41.29;40.38;42.08;;
67318;Laerm;57664;51.436;5.980;2023-02-15T00:31:32;41.30;40.37;42.10;;
67318;Laerm;57664;51.436;5.980;2023-02-15T00:31:42;41.26;40.44;42.12;;
67318;Laerm;57664;51.436;5.980;2023-02-15T00:31:53;41.27;40.44;42.08;;
67318;Laerm;57664;51.436;5.980;2023-02-15T00:32:03;41.27;40.34;42.27;;
67318;Laerm;57664;51.436;5.980;2023-02-15T00:32:14;41.26;40.14;42.08;;
67318;Laerm;57664;51.436;5.980;2023-02-15T00:32:24;41.24;40.22;42.19;;
67318;Laerm;57664;51.436;5.980;2023-02-15T00:32:34;41.31;40.30;42.15;;
67318;Laerm;57664;51.436;5.980;2023-02-15T00:32:46;41.26;40.32;42.19;;
67318;Laerm;57664;51.436;5.980;2023-02-15T00:32:57;41.24;40.07;42.01;;
67318;Laerm;57664;51.436;5.980;2023-02-15T00:33:07;41.25;40.13;42.36;;
67318;Laerm;57664;51.436;5.980;2023-02-15T00:33:17;41.25;40.31;42.09;;
67318;Laerm;57664;51.436;5.980;2023-02-15T00:33:27;41.28;40.15;42.06;;
67318;Laerm;57664;51.436;5.980;2023-02-15T00:33:38;41.28;40.24;42.25;;
67318;Laerm;57664;51.436;5.980;2023-02-15T00:33:49;41.27;40.35;42.08;;
67318;Laerm;57664;51.436;5.980;2023-02-15T00:34:07;41.29;40.32;42.41;;
67318;Laerm;57664;51.436;5.980;2023-02-15T00:34:22;41.27;40.24;42.15;;
67318;Laerm;57664;51.436;5.980;2023-02-15T00:34:32;41.26;40.32;42.09;;
67318;Laerm;57664;51.436;5.980;2023-02-15T00:34:43;41.22;40.56;42.27;;
67318;Laerm;57664;51.436;5.980;2023-02-15T00:34:53;41.28;40.20;42.09;;
67318;Laerm;57664;51.436;5.980;2023-02-15T00:35:03;41.24;40.32;42.23;;
67318;Laerm;57664;51.436;5.980;2023-02-15T00:35:14;41.29;40.25;42.23;;
67318;Laerm;57664;51.436;5.980;2023-02-15T00:35:24;41.25;40.41;42.29;;
67318;Laerm;57664;51.436;5.980;2023-02-15T00:35:34;41.28;40.48;42.07;;
67318;Laerm;57664;51.436;5.980;2023-02-15T00:35:44;41.28;40.30;42.23;;
67318;Laerm;57664;51.436;5.980;2023-02-15T00:35:55;41.29;40.40;42.12;;
67318;Laerm;57664;51.436;5.980;2023-02-15T00:36:07;41.29;40.28;42.62;;
67318;Laerm;57664;51.436;5.980;2023-02-15T00:36:17;41.30;40.24;42.17;;
67318;Laerm;57664;51.436;5.980;2023-02-15T00:36:27;41.26;40.25;42.32;;
67318;Laerm;57664;51.436;5.980;2023-02-15T00:36:38;41.26;40.30;42.70;;
67318;Laerm;57664;51.436;5.980;2023-02-15T00:36:49;41.28;40.31;42.05;;
67318;Laerm;57664;51.436;5.980;2023-02-15T00:36:59;41.27;40.26;42.10;;
67318;Laerm;57664;51.436;5.980;2023-02-15T00:37:09;41.26;40.49;42.00;;
67318;Laerm;57664;51.436;5.980;2023-02-15T00:37:19;41.22;40.40;42.34;;
67318;Laerm;57664;51.436;5.980;2023-02-15T00:37:30;41.22;40.46;42.10;;
67318;Laerm;57664;51.436;5.980;2023-02-15T00:37:40;41.24;40.34;41.91;;
67318;Laerm;57664;51.436;5.980;2023-02-15T00:37:50;41.26;40.45;42.10;;
67318;Laerm;57664;51.436;5.980;2023-02-15T00:38:02;41.24;40.39;42.49;;
67318;Laerm;57664;51.436;5.980;2023-02-15T00:38:15;41.27;40.46;42.13;;
67318;Laerm;57664;51.436;5.980;2023-02-15T00:38:26;41.22;40.30;42.03;;
67318;Laerm;57664;51.436;5.980;2023-02-15T00:38:37;41.27;40.37;42.20;;
67318;Laerm;57664;51.436;5.980;2023-02-15T00:38:48;41.25;40.32;42.06;;
67318;Laerm;57664;51.436;5.980;2023-02-15T00:38:58;41.26;40.48;42.53;;
67318;Laerm;57664;51.436;5.980;2023-02-15T00:39:09;41.27;40.25;42.32;;
67318;Laerm;57664;51.436;5.980;2023-02-15T00:39:20;41.27;40.06;42.19;;
67318;Laerm;57664;51.436;5.980;2023-02-15T00:39:31;41.26;40.18;42.20;;
67318;Laerm;57664;51.436;5.980;2023-02-15T00:39:42;41.25;40.51;42.19;;
67318;Laerm;57664;51.436;5.980;2023-02-15T00:39:52;41.25;40.24;42.10;;
67318;Laerm;57664;51.436;5.980;2023-02-15T00:40:02;41.28;40.41;42.96;;
67318;Laerm;57664;51.436;5.980;2023-02-15T00:40:13;41.23;40.28;42.06;;
67318;Laerm;57664;51.436;5.980;2023-02-15T00:40:23;41.27;40.45;42.26;;
67318;Laerm;57664;51.436;5.980;2023-02-15T00:40:34;41.27;40.36;42.21;;
67318;Laerm;57664;51.436;5.980;2023-02-15T00:40:44;41.25;40.48;42.26;;
67318;Laerm;57664;51.436;5.980;2023-02-15T00:41:02;41.26;40.38;42.11;;
67318;Laerm;57664;51.436;5.980;2023-02-15T00:41:12;41.25;40.45;42.05;;
67318;Laerm;57664;51.436;5.980;2023-02-15T00:41:23;41.26;40.52;42.10;;
67318;Laerm;57664;51.436;5.980;2023-02-15T00:41:33;41.31;40.51;42.16;;
67318;Laerm;57664;51.436;5.980;2023-02-15T00:41:44;41.27;40.37;42.28;;
67318;Laerm;57664;51.436;5.980;2023-02-15T00:41:55;41.28;40.28;42.07;;
67318;Laerm;57664;51.436;5.980;2023-02-15T00:42:05;41.30;40.48;42.32;;
67318;Laerm;57664;51.436;5.980;2023-02-15T00:42:15;41.27;40.34;42.05;;
67318;Laerm;57664;51.436;5.980;2023-02-15T00:42:26;41.25;40.42;42.49;;
67318;Laerm;57664;51.436;5.980;2023-02-15T00:42:36;41.27;40.31;42.17;;
67318;Laerm;57664;51.436;5.980;2023-02-15T00:42:46;41.26;40.34;42.20;;
67318;Laerm;57664;51.436;5.980;2023-02-15T00:42:56;41.28;40.39;42.13;;
67318;Laerm;57664;51.436;5.980;2023-02-15T00:43:08;41.31;40.54;42.36;;
67318;Laerm;57664;51.436;5.980;2023-02-15T00:43:18;41.25;40.46;42.79;;
67318;Laerm;57664;51.436;5.980;2023-02-15T00:43:29;41.32;40.47;42.72;;
67318;Laerm;57664;51.436;5.980;2023-02-15T00:43:40;41.28;40.40;42.88;;
67318;Laerm;57664;51.436;5.980;2023-02-15T00:43:50;41.27;40.48;42.16;;
67318;Laerm;57664;51.436;5.980;2023-02-15T00:44:00;41.27;40.23;42.37;;
67318;Laerm;57664;51.436;5.980;2023-02-15T00:44:11;41.27;40.36;42.11;;
67318;Laerm;57664;51.436;5.980;2023-02-15T00:44:22;41.27;40.45;41.93;;
67318;Laerm;57664;51.436;5.980;2023-02-15T00:44:32;41.28;40.38;42.11;;
67318;Laerm;57664;51.436;5.980;2023-02-15T00:44:42;41.24;40.26;42.20;;
67318;Laerm;57664;51.436;5.980;2023-02-15T00:44:53;41.26;40.47;42.11;;
67318;Laerm;57664;51.436;5.980;2023-02-15T00:45:03;41.26;40.20;42.26;;
67318;Laerm;57664;51.436;5.980;2023-02-15T00:45:14;41.24;40.03;42.03;;
67318;Laerm;57664;51.436;5.980;2023-02-15T00:45:24;41.23;40.37;42.27;;
67318;Laerm;57664;51.436;5.980;2023-02-15T00:45:34;41.21;40.23;42.41;;
67318;Laerm;57664;51.436;5.980;2023-02-15T00:45:45;41.25;40.44;42.17;;
67318;Laerm;57664;51.436;5.980;2023-02-15T00:45:55;41.23;40.18;42.18;;
67318;Laerm;57664;51.436;5.980;2023-02-15T00:46:05;41.20;40.40;42.04;;
67318;Laerm;57664;51.436;5.980;2023-02-15T00:46:16;41.25;40.36;42.13;;
67318;Laerm;57664;51.436;5.980;2023-02-15T00:46:26;41.25;40.35;41.96;;
67318;Laerm;57664;51.436;5.980;2023-02-15T00:46:36;41.24;40.06;42.35;;
67318;Laerm;57664;51.436;5.980;2023-02-15T00:46:46;41.23;40.27;41.94;;
67318;Laerm;57664;51.436;5.980;2023-02-15T00:46:57;41.22;40.24;42.93;;
67318;Laerm;57664;51.436;5.980;2023-02-15T00:47:07;41.21;40.29;42.84;;
67318;Laerm;57664;51.436;5.980;2023-02-15T00:47:17;41.20;40.01;42.19;;
67318;Laerm;57664;51.436;5.980;2023-02-15T00:47:27;41.23;40.43;42.14;;
67318;Laerm;57664;51.436;5.980;2023-02-15T00:47:38;41.22;40.42;42.14;;
67318;Laerm;57664;51.436;5.980;2023-02-15T00:47:48;41.19;40.13;42.17;;
67318;Laerm;57664;51.436;5.980;2023-02-15T00:47:58;41.28;40.46;42.13;;
67318;Laerm;57664;51.436;5.980;2023-02-15T00:48:09;41.24;40.40;42.14;;
67318;Laerm;57664;51.436;5.980;2023-02-15T00:48:19;41.22;40.28;42.11;;
67318;Laerm;57664;51.436;5.980;2023-02-15T00:48:30;41.23;39.98;42.10;;
67318;Laerm;57664;51.436;5.980;2023-02-15T00:48:43;41.22;40.30;42.15;;
67318;Laerm;57664;51.436;5.980;2023-02-15T00:48:53;41.24;40.31;42.11;;
67318;Laerm;57664;51.436;5.980;2023-02-15T00:49:04;41.24;40.33;42.02;;
67318;Laerm;57664;51.436;5.980;2023-02-15T00:49:14;41.22;40.11;41.96;;
67318;Laerm;57664;51.436;5.980;2023-02-15T00:49:24;41.21;40.33;41.94;;
67318;Laerm;57664;51.436;5.980;2023-02-15T00:49:35;41.22;40.33;41.92;;
67318;Laerm;57664;51.436;5.980;2023-02-15T00:49:45;41.25;40.44;42.44;;
67318;Laerm;57664;51.436;5.980;2023-02-15T00:49:55;41.25;40.37;42.11;;
67318;Laerm;57664;51.436;5.980;2023-02-15T00:50:06;41.21;40.40;42.04;;
67318;Laerm;57664;51.436;5.980;2023-02-15T00:50:16;41.20;40.04;42.17;;
67318;Laerm;57664;51.436;5.980;2023-02-15T00:50:26;41.22;40.37;42.01;;
67318;Laerm;57664;51.436;5.980;2023-02-15T00:50:36;41.22;40.20;42.28;;
67318;Laerm;57664;51.436;5.980;2023-02-15T00:50:54;41.23;40.12;42.04;;
67318;Laerm;57664;51.436;5.980;2023-02-15T00:51:04;41.25;40.30;42.37;;
67318;Laerm;57664;51.436;5.980;2023-02-15T00:51:15;41.24;40.41;42.01;;
67318;Laerm;57664;51.436;5.980;2023-02-15T00:51:25;41.21;40.23;42.13;;
67318;Laerm;57664;51.436;5.980;2023-02-15T00:51:36;41.25;40.12;42.24;;
67318;Laerm;57664;51.436;5.980;2023-02-15T00:51:46;41.21;40.37;42.16;;
67318;Laerm;57664;51.436;5.980;2023-02-15T00:51:56;41.20;40.18;42.17;;
67318;Laerm;57664;51.436;5.980;2023-02-15T00:52:07;41.21;40.22;42.20;;
67318;Laerm;57664;51.436;5.980;2023-02-15T00:52:17;41.24;40.36;42.21;;
67318;Laerm;57664;51.436;5.980;2023-02-15T00:52:27;41.25;40.36;42.14;;
67318;Laerm;57664;51.436;5.980;2023-02-15T00:52:37;41.22;40.38;41.91;;
67318;Laerm;57664;51.436;5.980;2023-02-15T00:52:48;41.23;40.26;42.21;;
67318;Laerm;57664;51.436;5.980;2023-02-15T00:52:58;41.22;40.14;42.17;;
67318;Laerm;57664;51.436;5.980;2023-02-15T00:53:08;41.21;40.18;41.96;;
67318;Laerm;57664;51.436;5.980;2023-02-15T00:53:19;41.23;40.23;42.02;;
67318;Laerm;57664;51.436;5.980;2023-02-15T00:53:29;41.24;40.49;41.98;;
67318;Laerm;57664;51.436;5.980;2023-02-15T00:53:39;41.23;40.11;42.00;;
67318;Laerm;57664;51.436;5.980;2023-02-15T00:53:50;41.23;40.29;42.12;;
67318;Laerm;57664;51.436;5.980;2023-02-15T00:54:00;41.24;40.41;41.95;;
67318;Laerm;57664;51.436;5.980;2023-02-15T00:54:10;41.22;40.35;42.13;;
67318;Laerm;57664;51.436;5.980;2023-02-15T00:54:21;41.23;40.22;42.14;;
67318;Laerm;57664;51.436;5.980;2023-02-15T00:54:31;41.23;40.35;42.16;;
67318;Laerm;57664;51.436;5.980;2023-02-15T00:54:41;41.22;40.27;42.05;;
67318;Laerm;57664;51.436;5.980;2023-02-15T00:54:51;41.24;40.43;42.06;;
67318;Laerm;57664;51.436;5.980;2023-02-15T00:55:02;41.23;40.50;42.33;;
67318;Laerm;57664;51.436;5.980;2023-02-15T00:55:12;41.23;40.39;42.03;;
67318;Laerm;57664;51.436;5.980;2023-02-15T00:55:22;41.21;40.34;42.13;;
67318;Laerm;57664;51.436;5.980;2023-02-15T00:55:33;41.25;40.33;42.16;;
67318;Laerm;57664;51.436;5.980;2023-02-15T00:55:43;41.20;40.13;41.89;;
67318;Laerm;57664;51.436;5.980;2023-02-15T00:55:53;41.21;40.21;42.91;;
67318;Laerm;57664;51.436;5.980;2023-02-15T00:56:04;41.19;40.02;42.02;;
67318;Laerm;57664;51.436;5.980;2023-02-15T00:56:14;41.24;40.23;42.03;;
67318;Laerm;57664;51.436;5.980;2023-02-15T00:56:25;41.20;40.29;42.05;;
67318;Laerm;57664;51.436;5.980;2023-02-15T00:56:35;41.26;40.34;41.98;;
67318;Laerm;57664;51.436;5.980;2023-02-15T00:56:45;41.21;40.15;42.14;;
67318;Laerm;57664;51.436;5.980;2023-02-15T00:56:55;41.21;40.35;42.04;;
67318;Laerm;57664;51.436;5.980;2023-02-15T00:57:06;41.22;40.18;42.09;;
67318;Laerm;57664;51.436;5.980;2023-02-15T00:57:16;41.24;40.31;42.12;;
67318;Laerm;57664;51.436;5.980;2023-02-15T00:57:26;41.27;40.24;42.03;;
67318;Laerm;57664;51.436;5.980;2023-02-15T00:57:37;41.22;40.49;42.16;;
67318;Laerm;57664;51.436;5.980;2023-02-15T00:57:47;41.21;40.32;42.07;;
67318;Laerm;57664;51.436;5.980;2023-02-15T00:57:57;41.21;40.10;42.30;;
67318;Laerm;57664;51.436;5.980;2023-02-15T00:58:08;41.26;40.36;42.03;;
67318;Laerm;57664;51.436;5.980;2023-02-15T00:58:18;41.23;40.34;42.39;;
67318;Laerm;57664;51.436;5.980;2023-02-15T00:58:28;41.21;40.02;42.28;;
67318;Laerm;57664;51.436;5.980;2023-02-15T00:58:39;41.20;40.07;42.14;;
67318;Laerm;57664;51.436;5.980;2023-02-15T00:58:49;41.22;40.40;42.09;;
67318;Laerm;57664;51.436;5.980;2023-02-15T00:58:59;41.20;40.44;42.07;;
67318;Laerm;57664;51.436;5.980;2023-02-15T00:59:09;41.18;40.39;42.02;;
67318;Laerm;57664;51.436;5.980;2023-02-15T00:59:20;41.20;40.16;41.95;;
67318;Laerm;57664;51.436;5.980;2023-02-15T00:59:30;41.20;39.93;42.25;;
67318;Laerm;57664;51.436;5.980;2023-02-15T00:59:40;41.20;40.15;42.29;;
67318;Laerm;57664;51.436;5.980;2023-02-15T00:59:51;41.20;40.23;42.02;;
67318;Laerm;57664;51.436;5.980;2023-02-15T01:00:01;41.21;40.31;42.05;;
67318;Laerm;57664;51.436;5.980;2023-02-15T01:00:12;41.19;39.95;42.21;;
67318;Laerm;57664;51.436;5.980;2023-02-15T01:00:22;41.18;40.35;42.31;;
67318;Laerm;57664;51.436;5.980;2023-02-15T01:00:33;41.20;40.26;42.77;;
67318;Laerm;57664;51.436;5.980;2023-02-15T01:00:44;41.19;40.38;42.51;;
67318;Laerm;57664;51.436;5.980;2023-02-15T01:00:55;41.19;40.37;43.25;;